createdAt,value
2022-08-05T00:00:52.293Z,25.50
2022-08-05T00:03:19.126Z,25.40
2022-08-05T00:06:05.728Z,25.40
2022-08-05T00:08:35.638Z,25.40
2022-08-05T00:11:23.858Z,25.40
2022-08-05T00:13:55.189Z,25.40
2022-08-05T00:16:35.516Z,25.50
2022-08-05T00:19:04.257Z,25.40
2022-08-05T00:21:31.126Z,25.50
2022-08-05T00:24:10.101Z,25.50
2022-08-05T00:26:38.684Z,25.50
2022-08-05T00:29:05.428Z,25.30
2022-08-05T00:31:54.332Z,25.20
2022-08-05T00:34:56.489Z,25.10
2022-08-05T00:37:11.668Z,25.00
2022-08-05T00:39:57.198Z,25.00
2022-08-05T00:42:32.915Z,24.90
2022-08-05T00:45:00.533Z,24.90
2022-08-05T00:47:49.186Z,24.80
2022-08-05T00:50:14.115Z,24.80
2022-08-05T00:52:41.974Z,24.80
2022-08-05T00:55:12.346Z,24.80
2022-08-05T00:57:57.980Z,24.70
2022-08-05T01:00:27.797Z,24.80
2022-08-05T01:02:55.913Z,24.80
2022-08-05T01:05:23.203Z,24.80
2022-08-05T01:08:40.661Z,24.80
2022-08-05T01:11:06.267Z,24.70
2022-08-05T01:14:08.760Z,24.70
2022-08-05T01:16:47.342Z,24.70
2022-08-05T01:20:01.614Z,24.60
2022-08-05T01:23:15.020Z,24.60
2022-08-05T01:25:53.162Z,24.50
2022-08-05T01:28:46.100Z,24.50
2022-08-05T01:31:25.221Z,24.60
2022-08-05T01:34:09.043Z,24.60
2022-08-05T01:36:53.718Z,24.60
2022-08-05T01:39:45.866Z,24.50
2022-08-05T01:42:13.770Z,24.40
2022-08-05T01:44:44.164Z,24.30
2022-08-05T01:47:14.937Z,24.30
2022-08-05T01:50:00.357Z,24.30
2022-08-05T01:52:31.598Z,24.20
2022-08-05T01:55:04.448Z,24.00
2022-08-05T01:58:12.358Z,24.00
2022-08-05T02:00:30.032Z,23.90
2022-08-05T02:03:07.542Z,23.70
2022-08-05T02:05:58.025Z,23.50
2022-08-05T02:08:31.118Z,23.40
2022-08-05T02:11:12.971Z,23.30
2022-08-05T02:13:53.211Z,23.40
2022-08-05T02:16:27.642Z,23.30
2022-08-05T02:19:07.962Z,23.30
2022-08-05T02:21:46.926Z,23.30
2022-08-05T02:24:23.365Z,23.30
2022-08-05T02:26:59.822Z,23.20
2022-08-05T02:29:59.839Z,23.20
2022-08-05T02:32:30.827Z,23.20
2022-08-05T02:35:13.405Z,23.10
2022-08-05T02:37:47.845Z,22.90
2022-08-05T02:40:22.011Z,22.60
2022-08-05T02:42:54.021Z,22.30
2022-08-05T02:45:24.117Z,22.10
2022-08-05T02:48:07.496Z,21.90
2022-08-05T02:50:44.007Z,21.80
2022-08-05T02:53:19.128Z,21.80
2022-08-05T02:55:53.940Z,21.90
2022-08-05T02:58:27.292Z,21.80
2022-08-05T03:00:58.697Z,21.80
2022-08-05T03:03:28.014Z,21.90
2022-08-05T03:06:54.598Z,21.80
2022-08-05T03:08:52.308Z,21.70
2022-08-05T03:11:57.429Z,21.40
2022-08-05T03:14:13.596Z,21.20
2022-08-05T03:16:40.658Z,21.00
2022-08-05T03:19:17.419Z,20.90
2022-08-05T03:21:54.690Z,20.80
2022-08-05T03:24:30.142Z,20.70
2022-08-05T03:26:59.918Z,20.50
2022-08-05T03:29:45.692Z,20.50
2022-08-05T03:32:15.349Z,20.50
2022-08-05T03:34:50.772Z,20.60
2022-08-05T03:37:20.698Z,20.60
2022-08-05T03:40:01.820Z,20.60
2022-08-05T03:42:32.188Z,20.60
2022-08-05T03:45:01.559Z,20.60
2022-08-05T03:47:35.218Z,20.60
2022-08-05T03:50:02.426Z,20.70
2022-08-05T03:52:37.396Z,20.70
2022-08-05T03:56:09.531Z,20.70
2022-08-05T03:58:20.656Z,20.70
2022-08-05T04:00:57.866Z,20.70
2022-08-05T04:03:29.287Z,20.70
2022-08-05T04:05:57.659Z,20.70
2022-08-05T04:08:34.918Z,20.60
2022-08-05T04:11:05.905Z,20.60
2022-08-05T04:13:49.882Z,20.50
2022-08-05T04:16:25.209Z,20.50
2022-08-05T04:18:54.805Z,20.50
2022-08-05T04:22:08.789Z,20.50
2022-08-05T04:24:19.515Z,20.50
2022-08-05T04:26:50.369Z,20.60
2022-08-05T04:29:17.156Z,20.60
2022-08-05T04:31:43.891Z,20.70
2022-08-05T04:34:33.000Z,20.70
2022-08-05T04:36:58.662Z,20.80
2022-08-05T04:39:25.368Z,20.80
2022-08-05T04:41:54.434Z,20.80
2022-08-05T04:44:29.521Z,20.80
2022-08-05T04:46:59.133Z,20.90
2022-08-05T04:49:39.079Z,20.90
2022-08-05T04:52:13.892Z,21.00
2022-08-05T04:54:41.957Z,21.10
2022-08-05T04:57:08.667Z,21.20
2022-08-05T04:59:38.628Z,21.30
2022-08-05T05:02:37.508Z,21.40
2022-08-05T05:05:01.844Z,21.50
2022-08-05T05:07:29.338Z,21.60
2022-08-05T05:09:56.732Z,21.70
2022-08-05T05:12:24.297Z,21.60
2022-08-05T05:14:54.290Z,21.60
2022-08-05T05:17:24.230Z,21.60
2022-08-05T05:19:55.132Z,21.60
2022-08-05T05:22:26.300Z,21.60
2022-08-05T05:24:57.927Z,21.60
2022-08-05T05:27:45.198Z,21.60
2022-08-05T05:30:30.900Z,21.50
2022-08-05T05:33:03.814Z,21.60
2022-08-05T05:35:39.650Z,21.80
2022-08-05T05:38:13.545Z,22.00
2022-08-05T05:40:50.110Z,22.20
2022-08-05T05:43:27.736Z,22.30
2022-08-05T05:46:12.212Z,22.30
2022-08-05T05:48:43.858Z,22.20
2022-08-05T05:51:14.906Z,22.10
2022-08-05T05:53:54.569Z,22.40
2022-08-05T05:56:32.845Z,22.70
2022-08-05T05:59:06.429Z,22.80
2022-08-05T06:01:39.396Z,22.90
2022-08-05T06:04:12.176Z,22.90
2022-08-05T06:06:46.659Z,22.60
2022-08-05T06:09:17.655Z,22.30
2022-08-05T06:12:02.753Z,22.10
2022-08-05T06:14:34.679Z,21.90
2022-08-05T06:17:22.608Z,21.70
2022-08-05T06:19:57.015Z,21.60
2022-08-05T06:22:33.321Z,21.50
2022-08-05T06:25:01.694Z,21.40
2022-08-05T06:28:10.481Z,21.40
2022-08-05T06:30:35.068Z,21.40
2022-08-05T06:33:02.340Z,21.40
2022-08-05T06:36:03.841Z,21.50
2022-08-05T06:38:16.151Z,21.40
2022-08-05T06:40:44.454Z,21.40
2022-08-05T06:43:58.728Z,21.50
2022-08-05T06:46:03.977Z,21.50
2022-08-05T06:48:53.199Z,21.40
2022-08-05T06:51:26.711Z,21.40
2022-08-05T06:53:58.761Z,21.50
2022-08-05T06:56:26.593Z,21.50
2022-08-05T06:58:54.334Z,21.50
2022-08-05T07:01:21.363Z,21.40
2022-08-05T07:03:49.668Z,21.10
2022-08-05T07:06:17.388Z,20.90
2022-08-05T07:08:54.680Z,20.80
2022-08-05T07:11:22.486Z,20.70
2022-08-05T07:14:15.372Z,20.80
2022-08-05T07:17:59.723Z,20.80
2022-08-05T07:22:29.150Z,20.90
2022-08-05T07:24:59.323Z,20.90
2022-08-05T07:27:26.093Z,21.00
2022-08-05T07:30:24.592Z,21.00
2022-08-05T07:32:43.777Z,21.10
2022-08-05T07:36:04.061Z,21.20
2022-08-05T07:37:58.759Z,21.20
2022-08-05T07:40:32.884Z,21.30
2022-08-05T07:43:04.732Z,21.40
2022-08-05T07:45:57.365Z,21.40
2022-08-05T07:49:00.439Z,21.50
2022-08-05T07:51:23.712Z,21.70
2022-08-05T07:54:02.458Z,22.10
2022-08-05T07:57:02.577Z,22.70
2022-08-05T07:59:15.873Z,23.10
2022-08-05T08:01:52.095Z,23.30
2022-08-05T08:04:37.741Z,23.40
2022-08-05T08:07:07.394Z,23.40
2022-08-05T08:09:34.988Z,23.40
2022-08-05T08:12:10.633Z,23.40
2022-08-05T08:14:46.779Z,23.40
2022-08-05T08:17:15.971Z,23.30
2022-08-05T08:20:22.991Z,23.30
2022-08-05T08:22:32.311Z,23.40
2022-08-05T08:25:03.543Z,23.50
2022-08-05T08:27:40.074Z,23.50
2022-08-05T08:30:28.520Z,23.70
2022-08-05T08:33:04.337Z,23.90
2022-08-05T08:35:41.540Z,24.00
2022-08-05T08:38:32.263Z,24.10
2022-08-05T08:41:09.843Z,24.20
2022-08-05T08:45:17.974Z,24.20
2022-08-05T08:46:28.035Z,24.20
2022-08-05T08:49:06.296Z,24.20
2022-08-05T08:52:05.728Z,24.30
2022-08-05T08:54:34.172Z,24.60
2022-08-05T08:57:11.624Z,24.90
2022-08-05T08:59:41.825Z,24.90
2022-08-05T09:02:14.775Z,25.20
2022-08-05T09:04:58.621Z,25.70
2022-08-05T09:07:39.703Z,26.20
2022-08-05T09:10:20.521Z,26.30
2022-08-05T09:12:50.966Z,26.60
2022-08-05T09:15:20.369Z,26.70
2022-08-05T09:17:49.578Z,26.80
2022-08-05T09:20:36.251Z,27.10
2022-08-05T09:23:19.001Z,27.40
2022-08-05T09:26:10.157Z,27.40
2022-08-05T09:28:39.365Z,27.30
2022-08-05T09:31:22.732Z,27.40
2022-08-05T09:34:07.377Z,27.50
2022-08-05T09:36:56.156Z,27.50
2022-08-05T09:39:41.249Z,27.80
2022-08-05T09:42:23.007Z,27.60
2022-08-05T09:44:56.445Z,27.30
2022-08-05T09:47:48.180Z,27.50
2022-08-05T09:50:18.190Z,27.50
2022-08-05T09:53:01.181Z,27.30
2022-08-05T09:55:58.644Z,27.00
2022-08-05T09:58:21.605Z,27.10
2022-08-05T10:01:01.863Z,26.70
2022-08-05T10:03:58.641Z,27.00
2022-08-05T10:06:28.094Z,27.10
2022-08-05T10:08:55.719Z,27.40
2022-08-05T10:11:22.991Z,27.40
2022-08-05T10:13:54.422Z,27.20
2022-08-05T10:16:37.557Z,27.00
2022-08-05T10:19:09.130Z,26.50
2022-08-05T10:21:40.209Z,26.10
2022-08-05T10:24:10.676Z,25.60
2022-08-05T10:26:52.047Z,25.00
2022-08-05T10:30:05.786Z,24.40
2022-08-05T10:32:51.907Z,24.30
2022-08-05T10:35:00.832Z,24.60
2022-08-05T10:37:40.233Z,25.10
2022-08-05T10:40:57.983Z,25.60
2022-08-05T10:43:35.892Z,26.20
2022-08-05T10:46:07.688Z,26.30
2022-08-05T10:48:56.535Z,26.80
2022-08-05T10:51:29.365Z,27.00
2022-08-05T10:54:01.003Z,27.40
2022-08-05T10:56:45.729Z,27.40
2022-08-05T11:00:02.794Z,27.50
2022-08-05T11:02:34.784Z,27.60
2022-08-05T11:05:09.330Z,27.90
2022-08-05T11:08:17.107Z,27.90
2022-08-05T11:11:00.971Z,28.00
2022-08-05T11:13:57.860Z,27.90
2022-08-05T11:16:47.555Z,28.20
2022-08-05T11:20:11.339Z,28.40
2022-08-05T11:22:44.793Z,28.70
2022-08-05T11:26:05.040Z,28.40
2022-08-05T11:28:35.905Z,28.20
2022-08-05T11:31:06.442Z,27.80
2022-08-05T11:33:48.390Z,27.70
2022-08-05T11:36:34.013Z,27.80
2022-08-05T11:39:01.881Z,27.90
2022-08-05T11:41:54.689Z,27.70
2022-08-05T11:44:40.237Z,27.80
2022-08-05T11:47:11.170Z,28.00
2022-08-05T11:49:42.911Z,27.90
2022-08-05T11:52:11.901Z,27.80
2022-08-05T11:54:40.596Z,28.10
2022-08-05T11:57:24.939Z,28.30
2022-08-05T11:59:56.108Z,28.30
2022-08-05T12:02:31.793Z,28.00
2022-08-05T12:05:07.219Z,28.20
2022-08-05T12:08:07.463Z,28.40
2022-08-05T12:10:43.072Z,28.40
2022-08-05T12:13:15.873Z,28.60
2022-08-05T12:15:49.929Z,28.50
2022-08-05T12:18:40.854Z,28.80
2022-08-05T12:21:15.624Z,28.70
2022-08-05T12:24:04.847Z,28.60
2022-08-05T12:26:34.262Z,28.40
2022-08-05T12:29:03.095Z,28.20
2022-08-05T12:31:46.235Z,27.90
2022-08-05T12:34:21.172Z,27.50
2022-08-05T12:36:53.134Z,27.60
2022-08-05T12:39:20.190Z,27.70
2022-08-05T12:41:47.038Z,27.70
2022-08-05T12:44:33.021Z,28.00
2022-08-05T12:47:01.885Z,28.30
2022-08-05T12:50:04.682Z,28.20
2022-08-05T12:52:39.507Z,28.10
2022-08-05T12:55:22.305Z,28.00
2022-08-05T12:58:38.855Z,27.90
2022-08-05T13:02:02.360Z,28.10
2022-08-05T13:03:38.898Z,28.10
2022-08-05T13:06:11.809Z,28.20
2022-08-05T13:08:38.910Z,28.50
2022-08-05T13:11:07.781Z,28.70
2022-08-05T13:14:05.399Z,28.80
2022-08-05T13:16:27.687Z,28.60
2022-08-05T13:18:58.475Z,28.50
2022-08-05T13:21:28.374Z,28.20
2022-08-05T13:24:05.586Z,28.30
2022-08-05T13:26:32.652Z,28.40
2022-08-05T13:28:59.567Z,28.30
2022-08-05T13:32:02.881Z,28.30
2022-08-05T13:34:24.007Z,28.30
2022-08-05T13:36:53.918Z,28.40
2022-08-05T13:40:14.661Z,28.70
2022-08-05T13:42:14.497Z,28.50
2022-08-05T13:44:45.925Z,28.60
2022-08-05T13:47:35.541Z,28.80
2022-08-05T13:50:04.402Z,28.70
2022-08-05T13:52:35.634Z,28.60
2022-08-05T13:55:07.782Z,28.80
2022-08-05T13:57:51.392Z,28.90
2022-08-05T14:00:27.177Z,29.40
2022-08-05T14:02:56.491Z,29.40
2022-08-05T14:05:48.483Z,29.00
2022-08-05T14:08:20.032Z,28.70
2022-08-05T14:10:47.835Z,28.10
2022-08-05T14:13:15.583Z,27.80
2022-08-05T14:16:08.566Z,27.60
2022-08-05T14:18:29.461Z,27.70
2022-08-05T14:20:56.154Z,27.80
2022-08-05T14:23:25.885Z,28.00
2022-08-05T14:25:57.836Z,27.90
2022-08-05T14:28:29.551Z,27.70
2022-08-05T14:30:58.223Z,27.50
2022-08-05T14:33:25.371Z,27.00
2022-08-05T14:35:54.323Z,27.00
2022-08-05T14:38:32.169Z,26.80
2022-08-05T14:41:06.357Z,26.80
2022-08-05T14:44:01.853Z,26.80
2022-08-05T14:46:28.179Z,26.50
2022-08-05T14:48:58.224Z,26.40
2022-08-05T14:51:25.514Z,26.10
2022-08-05T14:54:26.703Z,26.10
2022-08-05T14:56:46.829Z,26.20
2022-08-05T14:59:15.231Z,25.80
2022-08-05T15:01:49.007Z,25.00
2022-08-05T15:04:20.363Z,24.60
2022-08-05T15:06:49.482Z,24.20
2022-08-05T15:09:52.725Z,23.80
2022-08-05T15:12:05.771Z,23.90
2022-08-05T15:14:35.861Z,23.50
2022-08-05T15:17:44.892Z,23.10
2022-08-05T15:19:56.990Z,23.10
2022-08-05T15:22:27.095Z,23.00
2022-08-05T15:24:54.993Z,23.10
2022-08-05T15:27:21.744Z,23.30
2022-08-05T15:29:52.829Z,23.50
2022-08-05T15:32:27.413Z,23.40
2022-08-05T15:34:56.550Z,23.70
2022-08-05T15:38:09.269Z,23.40
2022-08-05T15:41:04.794Z,23.10
2022-08-05T15:43:12.555Z,22.80
2022-08-05T15:45:45.917Z,22.60
2022-08-05T15:48:14.320Z,22.80
2022-08-05T15:50:41.661Z,22.80
2022-08-05T15:53:12.695Z,22.60
2022-08-05T15:56:02.241Z,22.40
2022-08-05T15:58:28.475Z,22.40
2022-08-05T16:01:11.758Z,22.30
2022-08-05T16:03:43.016Z,22.50
2022-08-05T16:06:11.159Z,22.50
2022-08-05T16:08:38.640Z,22.60
2022-08-05T16:11:07.248Z,22.70
2022-08-05T16:13:35.305Z,22.80
2022-08-05T16:16:03.813Z,22.60
2022-08-05T16:18:32.895Z,22.80
2022-08-05T16:21:04.275Z,22.90
2022-08-05T16:23:32.985Z,22.70
2022-08-05T16:26:18.801Z,22.60
2022-08-05T16:28:53.146Z,22.20
2022-08-05T16:31:21.470Z,22.00
2022-08-05T16:33:48.614Z,22.10
2022-08-05T16:36:20.520Z,22.00
2022-08-05T16:38:54.639Z,22.00
2022-08-05T16:42:14.339Z,21.90
2022-08-05T16:44:12.163Z,21.90
2022-08-05T16:46:41.186Z,22.10
2022-08-05T16:49:09.218Z,22.10
2022-08-05T16:51:42.926Z,22.20
2022-08-05T16:54:23.993Z,22.30
2022-08-05T16:56:55.577Z,22.40
2022-08-05T16:59:22.901Z,22.30
2022-08-05T17:01:54.759Z,22.30
2022-08-05T17:04:27.972Z,22.50
2022-08-05T17:07:03.450Z,22.60
2022-08-05T17:09:57.227Z,22.50
2022-08-05T17:12:51.299Z,22.30
2022-08-05T17:15:15.635Z,22.30
2022-08-05T17:17:50.067Z,22.30
2022-08-05T17:20:22.131Z,22.30
2022-08-05T17:22:55.176Z,22.20
2022-08-05T17:25:33.910Z,22.10
2022-08-05T17:28:07.768Z,22.10
2022-08-05T17:30:50.314Z,22.10
2022-08-05T17:33:18.697Z,21.90
2022-08-05T17:36:09.197Z,21.80
2022-08-05T17:38:33.677Z,22.00
2022-08-05T17:41:01.746Z,22.10
2022-08-05T17:43:47.295Z,22.20
2022-08-05T17:46:15.409Z,22.30
2022-08-05T17:48:45.114Z,22.30
2022-08-05T17:51:14.629Z,22.30
2022-08-05T17:53:50.760Z,22.30
2022-08-05T17:56:21.331Z,22.40
2022-08-05T17:58:49.831Z,22.50
2022-08-05T18:01:18.294Z,22.50
2022-08-05T18:03:58.425Z,22.40
2022-08-05T18:06:29.461Z,22.40
2022-08-05T18:08:58.156Z,22.40
2022-08-05T18:11:32.527Z,22.40
2022-08-05T18:14:07.091Z,22.40
2022-08-05T18:16:35.637Z,22.40
2022-08-05T18:19:18.451Z,22.30
2022-08-05T18:22:07.291Z,22.20
2022-08-05T18:24:34.731Z,22.20
2022-08-05T18:27:01.479Z,22.10
2022-08-05T18:29:40.080Z,22.00
2022-08-05T18:32:12.688Z,21.80
2022-08-05T18:34:41.029Z,21.70
2022-08-05T18:37:12.345Z,21.60
2022-08-05T18:40:34.568Z,21.60
2022-08-05T18:42:30.395Z,21.60
2022-08-05T18:44:57.395Z,21.50
2022-08-05T18:47:26.694Z,21.50
2022-08-05T18:50:12.788Z,21.40
2022-08-05T18:52:50.442Z,21.30
2022-08-05T18:55:18.579Z,21.20
2022-08-05T18:57:52.584Z,21.10
2022-08-05T19:00:27.212Z,21.10
2022-08-05T19:02:57.392Z,21.00
2022-08-05T19:06:05.749Z,20.90
2022-08-05T19:08:13.775Z,20.90
2022-08-05T19:10:42.242Z,20.90
2022-08-05T19:13:12.436Z,20.90
2022-08-05T19:15:59.407Z,20.90
2022-08-05T19:18:28.569Z,20.90
2022-08-05T19:20:55.964Z,20.80
2022-08-05T19:24:08.038Z,20.80
2022-08-05T19:26:11.807Z,20.70
2022-08-05T19:28:43.430Z,20.60
2022-08-05T19:31:13.489Z,20.50
2022-08-05T19:33:48.401Z,20.40
2022-08-05T19:36:24.998Z,20.30
2022-08-05T19:38:53.178Z,20.30
2022-08-05T19:41:22.032Z,20.20
2022-08-05T19:44:12.775Z,20.00
2022-08-05T19:46:41.001Z,19.80
2022-08-05T19:49:16.449Z,19.60
2022-08-05T19:52:04.983Z,19.50
2022-08-05T19:54:32.769Z,19.40
2022-08-05T19:57:08.479Z,19.30
2022-08-05T20:00:01.175Z,19.30
2022-08-05T20:02:25.931Z,19.20
2022-08-05T20:04:53.120Z,19.10
2022-08-05T20:07:45.746Z,19.10
2022-08-05T20:10:13.765Z,19.10
2022-08-05T20:12:46.201Z,19.10
2022-08-05T20:15:15.877Z,19.10
2022-08-05T20:18:04.269Z,19.10
2022-08-05T20:20:38.646Z,19.20
2022-08-05T20:23:05.669Z,19.20
2022-08-05T20:25:39.859Z,19.20
2022-08-05T20:28:08.317Z,19.20
2022-08-05T20:30:41.278Z,19.10
2022-08-05T20:33:08.665Z,19.10
2022-08-05T20:35:40.589Z,19.10
2022-08-05T20:38:20.247Z,19.10
2022-08-05T20:40:56.291Z,19.00
2022-08-05T20:43:33.175Z,18.90
2022-08-05T20:46:12.432Z,18.80
2022-08-05T20:48:45.407Z,18.60
2022-08-05T20:51:17.761Z,18.40
2022-08-05T20:53:44.576Z,18.30
2022-08-05T20:56:27.663Z,18.30
2022-08-05T20:59:00.104Z,18.10
2022-08-05T21:01:40.694Z,18.10
2022-08-05T21:04:10.417Z,18.00
2022-08-05T21:06:45.594Z,18.00
2022-08-05T21:09:14.444Z,18.00
2022-08-05T21:12:07.514Z,17.90
2022-08-05T21:14:35.011Z,17.90
2022-08-05T21:17:05.428Z,17.80
2022-08-05T21:19:46.881Z,17.80
2022-08-05T21:22:18.707Z,17.70
2022-08-05T21:24:51.628Z,17.80
2022-08-05T21:27:25.338Z,17.90
2022-08-05T21:29:56.052Z,17.90
2022-08-05T21:32:27.694Z,17.80
2022-08-05T21:35:17.708Z,17.90
2022-08-05T21:37:53.090Z,17.90
2022-08-05T21:40:22.308Z,17.90
2022-08-05T21:42:51.984Z,17.90
2022-08-05T21:45:24.090Z,17.80
2022-08-05T21:47:56.595Z,17.90
2022-08-05T21:50:25.623Z,18.00
2022-08-05T21:52:52.895Z,17.90
2022-08-05T21:56:00.927Z,17.90
2022-08-05T21:58:06.766Z,18.00
2022-08-05T22:00:37.190Z,17.90
2022-08-05T22:03:04.084Z,17.90
2022-08-05T22:05:49.176Z,18.00
2022-08-05T22:08:21.961Z,18.00
2022-08-05T22:10:50.439Z,18.00
2022-08-05T22:14:20.326Z,17.90
2022-08-05T22:16:20.444Z,17.90
2022-08-05T22:18:52.490Z,17.90
2022-08-05T22:21:19.997Z,17.90
2022-08-05T22:24:09.023Z,17.90
2022-08-05T22:26:58.253Z,17.80
2022-08-05T22:29:26.120Z,17.90
2022-08-05T22:31:55.125Z,17.80
2022-08-05T22:34:28.838Z,17.80
2022-08-05T22:36:58.304Z,17.80
2022-08-05T22:39:30.986Z,17.70
2022-08-05T22:42:10.273Z,17.70
2022-08-05T22:44:40.363Z,17.70
2022-08-05T22:47:07.105Z,17.70
2022-08-05T22:50:18.446Z,17.60
2022-08-05T22:52:30.637Z,17.60
2022-08-05T22:54:59.750Z,17.70
2022-08-05T22:57:26.835Z,17.70
2022-08-05T23:00:01.070Z,17.70
2022-08-05T23:02:30.251Z,17.70
2022-08-05T23:05:01.519Z,17.60
2022-08-05T23:07:31.605Z,17.60
2022-08-05T23:10:01.485Z,17.60
2022-08-05T23:12:32.354Z,17.50
2022-08-05T23:15:08.491Z,17.60
2022-08-05T23:17:37.930Z,17.60
2022-08-05T23:20:22.081Z,17.50
2022-08-05T23:22:54.177Z,17.60
2022-08-05T23:25:51.179Z,17.60
2022-08-05T23:28:10.847Z,17.60
2022-08-05T23:30:40.551Z,17.50
2022-08-05T23:33:16.300Z,17.50
2022-08-05T23:35:49.286Z,17.50
2022-08-05T23:38:16.923Z,17.50
2022-08-05T23:40:49.502Z,17.40
2022-08-05T23:43:25.300Z,17.30
2022-08-05T23:46:19.994Z,17.30
2022-08-05T23:49:01.144Z,17.30
2022-08-05T23:51:54.939Z,17.30
2022-08-05T23:54:30.202Z,17.30
2022-08-05T23:57:04.891Z,17.20
